Time;durP1;ratioP1;P1;durP2;ratioP2;P2;SDS_P1;SDS_P2;PMS_P1;PMS_P2;Temp;Humidity;BMP_temperature;BMP_pressure;BME280_temperature;BME280_humidity;BME280_pressure;Samples;Min_cycle;Max_cycle;Signal;HPM_P1;HPM_P2
2023/05/06 00:02:20;;;;;;;2.42;2.05;;;9.40;99.90;;;;;;4957797;28;20224;-72
2023/05/06 00:04:47;;;;;;;4.10;1.48;;;9.40;99.90;;;;;;4964303;28;20735;-73
2023/05/06 00:07:14;;;;;;;4.90;1.40;;;9.50;99.90;;;;;;4957513;28;20303;-73
2023/05/06 00:09:40;;;;;;;2.53;2.40;;;9.50;99.90;;;;;;4965140;28;20211;-73
2023/05/06 00:12:07;;;;;;;1.75;1.65;;;9.40;99.90;;;;;;4968391;28;20594;-72
2023/05/06 00:14:34;;;;;;;4.20;3.00;;;9.40;99.90;;;;;;4963983;28;20574;-72
2023/05/06 00:17:02;;;;;;;1.60;1.52;;;9.40;99.90;;;;;;4964288;28;20216;-72
2023/05/06 00:19:29;;;;;;;2.17;1.58;;;9.40;99.90;;;;;;4961088;28;20221;-72
2023/05/06 00:21:56;;;;;;;2.20;2.10;;;9.40;99.90;;;;;;4962563;28;20211;-71
2023/05/06 00:24:22;;;;;;;2.10;1.92;;;9.40;99.90;;;;;;4972349;28;20232;-73
2023/05/06 00:26:49;;;;;;;1.10;1.08;;;9.50;99.90;;;;;;4964772;28;20216;-71
2023/05/06 00:29:16;;;;;;;1.45;1.45;;;9.40;99.90;;;;;;4952311;28;20748;-72
2023/05/06 00:31:44;;;;;;;1.20;1.20;;;9.40;99.90;;;;;;4955656;28;20216;-73
2023/05/06 00:34:12;;;;;;;3.20;2.85;;;9.40;99.90;;;;;;4964075;28;20607;-73
2023/05/06 00:36:38;;;;;;;1.25;1.20;;;9.40;99.90;;;;;;4966362;28;20582;-73
2023/05/06 00:39:05;;;;;;;1.33;1.20;;;9.40;99.90;;;;;;4953411;28;20209;-73
2023/05/06 00:41:32;;;;;;;3.03;1.13;;;9.50;99.90;;;;;;4965008;28;20209;-73
2023/05/06 00:43:59;;;;;;;0.80;0.80;;;9.50;99.90;;;;;;4971526;28;20231;-73
2023/05/06 00:46:26;;;;;;;1.55;1.45;;;9.50;99.90;;;;;;4962107;28;20209;-74
2023/05/06 00:48:54;;;;;;;4.05;1.75;;;9.50;99.90;;;;;;4960782;28;20205;-73
2023/05/06 00:51:22;;;;;;;2.70;2.08;;;9.50;99.90;;;;;;4960232;28;20209;-74
2023/05/06 00:53:49;;;;;;;1.80;1.75;;;9.50;99.90;;;;;;4969006;28;20220;-73
2023/05/06 00:56:17;;;;;;;3.50;2.40;;;9.60;99.90;;;;;;4969041;28;20565;-73
2023/05/06 00:58:44;;;;;;;5.10;1.67;;;9.60;99.90;;;;;;4952329;28;20217;-73
2023/05/06 01:01:11;;;;;;;1.85;1.85;;;9.50;99.90;;;;;;4954377;28;20311;-74
2023/05/06 01:03:38;;;;;;;1.40;1.40;;;9.50;99.90;;;;;;4963408;28;20262;-74
2023/05/06 01:06:13;;;;;;;4.25;1.55;;;9.50;99.90;;;;;;4970601;28;20312;-70
2023/05/06 01:08:47;;;;;;;1.85;1.50;;;9.50;99.90;;;;;;4957784;28;20223;-72
2023/05/06 01:11:20;;;;;;;0.82;0.82;;;9.50;99.90;;;;;;4956726;28;20379;-72
2023/05/06 01:13:52;;;;;;;1.63;1.63;;;9.50;99.90;;;;;;4970946;28;20283;-74
2023/05/06 01:16:21;;;;;;;2.47;2.47;;;9.50;99.90;;;;;;4961923;28;20204;-72
2023/05/06 01:18:49;;;;;;;1.42;1.35;;;9.40;99.90;;;;;;4968797;28;20223;-73
2023/05/06 01:21:18;;;;;;;1.48;1.35;;;9.40;99.90;;;;;;4971920;28;20314;-73
2023/05/06 01:23:54;;;;;;;5.38;2.50;;;9.40;99.90;;;;;;4964247;28;20240;-72
2023/05/06 01:26:21;;;;;;;2.00;1.88;;;9.40;99.90;;;;;;4958246;28;20232;-74
2023/05/06 01:28:47;;;;;;;2.25;2.15;;;9.40;99.90;;;;;;4960311;28;20209;-73
2023/05/06 01:31:22;;;;;;;1.88;1.77;;;9.30;99.90;;;;;;4971763;28;20204;-73
2023/05/06 01:33:59;;;;;;;2.03;1.92;;;9.30;99.90;;;;;;4963927;28;20243;-73
2023/05/06 01:36:29;;;;;;;1.73;1.63;;;9.30;99.90;;;;;;4959498;28;20209;-73
2023/05/06 01:39:00;;;;;;;4.70;1.05;;;9.30;99.90;;;;;;4969590;28;20302;-74
2023/05/06 01:41:31;;;;;;;3.92;1.73;;;9.20;99.90;;;;;;4946578;28;20296;-73
2023/05/06 01:44:00;;;;;;;1.90;1.80;;;9.30;99.90;;;;;;4950372;28;20241;-72
2023/05/06 01:46:30;;;;;;;1.02;0.85;;;9.30;99.90;;;;;;4960080;28;20287;-73
2023/05/06 01:49:01;;;;;;;5.63;2.10;;;9.30;99.90;;;;;;4960017;28;20588;-72
2023/05/06 01:51:27;;;;;;;3.40;2.30;;;9.30;99.90;;;;;;4966179;28;20204;-72
2023/05/06 01:53:54;;;;;;;3.83;3.15;;;9.30;99.90;;;;;;4963620;28;20225;-73
2023/05/06 01:56:22;;;;;;;1.95;1.40;;;9.30;99.90;;;;;;4959590;28;20232;-73
2023/05/06 01:58:49;;;;;;;6.70;1.85;;;9.30;99.90;;;;;;4968706;28;20283;-73
2023/05/06 02:01:16;;;;;;;1.50;1.50;;;9.20;99.90;;;;;;4971698;28;20236;-73
2023/05/06 02:03:42;;;;;;;2.65;2.55;;;9.20;99.90;;;;;;4964514;28;20225;-73
2023/05/06 02:06:09;;;;;;;1.55;1.40;;;9.30;99.90;;;;;;4963292;28;20200;-73
2023/05/06 02:08:36;;;;;;;1.77;1.67;;;9.30;99.90;;;;;;4971835;28;20212;-71
2023/05/06 02:11:02;;;;;;;1.70;1.70;;;9.20;99.90;;;;;;4971150;28;20642;-72
2023/05/06 02:13:31;;;;;;;1.75;1.65;;;9.20;99.90;;;;;;4965644;28;20221;-72
2023/05/06 02:15:57;;;;;;;4.47;2.72;;;9.20;99.90;;;;;;4963681;28;20232;-73
2023/05/06 02:18:24;;;;;;;2.05;1.73;;;9.30;99.90;;;;;;4955699;28;20212;-72
2023/05/06 02:20:51;;;;;;;1.55;1.42;;;9.30;99.90;;;;;;4955653;28;20693;-72
2023/05/06 02:23:18;;;;;;;1.83;1.83;;;9.30;99.90;;;;;;4956932;28;20228;-71
2023/05/06 02:25:45;;;;;;;1.30;1.30;;;9.30;99.90;;;;;;4963163;28;20227;-71
2023/05/06 02:28:12;;;;;;;1.10;1.10;;;9.30;99.90;;;;;;4955683;28;20329;-72
2023/05/06 02:30:40;;;;;;;2.28;2.25;;;9.30;99.90;;;;;;4954830;28;20685;-72
2023/05/06 02:33:06;;;;;;;2.85;2.45;;;9.30;99.90;;;;;;4957456;28;20247;-72
2023/05/06 02:35:33;;;;;;;5.35;2.65;;;9.30;99.90;;;;;;4962936;28;20212;-73
2023/05/06 02:38:00;;;;;;;3.10;2.72;;;9.30;99.90;;;;;;4955774;28;20224;-72
2023/05/06 02:40:27;;;;;;;3.30;3.10;;;9.30;99.90;;;;;;4949055;28;20232;-72
2023/05/06 02:42:53;;;;;;;4.22;1.75;;;9.30;99.90;;;;;;4955660;28;20285;-72
2023/05/06 02:45:20;;;;;;;3.03;2.53;;;9.40;99.90;;;;;;4967421;28;20209;-72
2023/05/06 02:47:48;;;;;;;3.05;2.78;;;9.40;99.90;;;;;;4958150;28;20231;-72
2023/05/06 02:50:15;;;;;;;3.10;2.72;;;9.40;99.90;;;;;;4966981;28;20207;-71
2023/05/06 02:52:42;;;;;;;2.30;2.20;;;9.40;99.90;;;;;;4957734;28;20315;-73
2023/05/06 02:55:10;;;;;;;2.53;2.42;;;9.40;99.90;;;;;;4955114;28;20241;-71
2023/05/06 02:57:36;;;;;;;3.50;2.53;;;9.40;99.90;;;;;;4956821;28;20998;-72
2023/05/06 03:00:05;;;;;;;2.55;1.80;;;9.40;99.90;;;;;;4954576;28;20220;-73
2023/05/06 03:02:32;;;;;;;1.92;1.83;;;9.40;99.90;;;;;;4964111;28;20209;-73
2023/05/06 03:05:00;;;;;;;2.10;2.00;;;9.40;99.90;;;;;;4955540;28;20341;-72
2023/05/06 03:07:27;;;;;;;2.60;2.40;;;9.50;99.90;;;;;;4956624;28;20220;-73
2023/05/06 03:09:53;;;;;;;3.42;2.33;;;9.50;99.90;;;;;;4956397;28;20237;-73
2023/05/06 03:12:20;;;;;;;13.02;2.78;;;9.50;99.90;;;;;;4966582;28;20201;-73
2023/05/06 03:14:47;;;;;;;3.17;2.80;;;9.50;99.90;;;;;;4961109;28;20682;-73
2023/05/06 03:17:13;;;;;;;3.33;3.03;;;9.50;99.90;;;;;;4956131;28;20213;-72
2023/05/06 03:19:40;;;;;;;3.03;2.83;;;9.60;99.90;;;;;;4954506;28;20209;-72
2023/05/06 03:22:08;;;;;;;9.27;3.70;;;9.60;99.90;;;;;;4965373;28;20220;-72
2023/05/06 03:24:35;;;;;;;3.15;2.88;;;9.50;99.90;;;;;;4962375;28;20566;-73
2023/05/06 03:27:02;;;;;;;5.97;1.80;;;9.50;99.90;;;;;;4954343;28;20224;-71
2023/05/06 03:29:28;;;;;;;7.30;4.30;;;9.60;99.90;;;;;;4953470;28;20679;-73
2023/05/06 03:31:56;;;;;;;2.58;2.42;;;9.60;99.90;;;;;;4963349;28;20210;-73
2023/05/06 03:34:22;;;;;;;2.67;2.47;;;9.50;99.90;;;;;;4965025;28;20255;-73
2023/05/06 03:36:49;;;;;;;2.90;2.42;;;9.60;99.90;;;;;;4973932;28;20215;-73
2023/05/06 03:39:17;;;;;;;5.13;3.00;;;9.60;99.90;;;;;;4970656;28;20208;-71
2023/05/06 03:41:44;;;;;;;2.67;2.50;;;9.60;99.90;;;;;;4968645;28;20224;-73
2023/05/06 03:44:11;;;;;;;3.70;3.40;;;9.60;99.90;;;;;;4966590;28;20245;-73
2023/05/06 03:46:38;;;;;;;2.50;2.40;;;9.60;99.90;;;;;;4955132;29;20209;-72
2023/05/06 03:49:05;;;;;;;8.38;1.50;;;9.60;99.90;;;;;;4954905;29;20215;-72
2023/05/06 03:51:32;;;;;;;3.17;2.50;;;9.60;99.90;;;;;;4961940;28;20205;-74
2023/05/06 03:53:59;;;;;;;3.22;2.60;;;9.60;99.90;;;;;;4966977;28;20225;-73
2023/05/06 03:56:27;;;;;;;9.48;3.70;;;9.60;99.90;;;;;;4953856;28;20621;-71
2023/05/06 03:58:54;;;;;;;2.67;2.50;;;9.60;99.90;;;;;;4954291;28;20205;-72
2023/05/06 04:01:21;;;;;;;3.05;2.72;;;9.60;99.90;;;;;;4960789;28;20312;-72
2023/05/06 04:03:48;;;;;;;4.72;2.85;;;9.60;99.90;;;;;;4953515;28;20311;-72
2023/05/06 04:06:14;;;;;;;4.80;4.18;;;9.60;99.90;;;;;;4961848;28;20208;-74
2023/05/06 04:08:41;;;;;;;3.00;2.72;;;9.60;99.90;;;;;;4969664;28;20215;-74
2023/05/06 04:11:08;;;;;;;2.38;2.35;;;9.60;99.90;;;;;;4973188;28;20204;-74
2023/05/06 04:13:36;;;;;;;3.38;3.17;;;9.60;99.90;;;;;;4971286;28;20681;-72
2023/05/06 04:16:04;;;;;;;2.72;2.53;;;9.60;99.90;;;;;;4960997;28;20220;-71
2023/05/06 04:18:31;;;;;;;3.58;3.38;;;9.60;99.90;;;;;;4968010;28;20244;-73
2023/05/06 04:20:58;;;;;;;2.70;2.50;;;9.60;99.90;;;;;;4969531;28;20708;-73
2023/05/06 04:23:25;;;;;;;3.30;2.95;;;9.60;99.90;;;;;;4961125;28;20272;-72
2023/05/06 04:25:52;;;;;;;6.25;3.22;;;9.60;99.90;;;;;;4954517;28;20209;-72
2023/05/06 04:28:19;;;;;;;2.67;2.47;;;9.60;99.90;;;;;;4954060;28;20208;-70
2023/05/06 04:30:47;;;;;;;2.97;2.78;;;9.60;99.90;;;;;;4953622;28;20205;-71
2023/05/06 04:33:13;;;;;;;3.65;3.30;;;9.60;99.90;;;;;;4960512;28;20236;-71
2023/05/06 04:35:41;;;;;;;5.20;4.07;;;9.70;99.90;;;;;;4968635;28;20212;-72
2023/05/06 04:38:08;;;;;;;2.72;2.63;;;9.70;99.90;;;;;;4972966;28;20247;-70
2023/05/06 04:40:38;;;;;;;8.45;4.13;;;9.70;99.90;;;;;;4961935;28;20221;-73
2023/05/06 04:43:05;;;;;;;6.38;3.45;;;9.70;99.90;;;;;;4970837;28;20707;-72
2023/05/06 04:45:33;;;;;;;3.83;3.60;;;9.70;99.90;;;;;;4971871;28;20208;-71
2023/05/06 04:48:01;;;;;;;2.55;2.25;;;9.70;99.90;;;;;;4967646;28;20650;-73
2023/05/06 04:50:28;;;;;;;4.65;4.25;;;9.70;99.90;;;;;;4965024;28;20255;-74
2023/05/06 04:52:54;;;;;;;3.38;3.10;;;9.80;99.90;;;;;;4953314;28;20421;-72
2023/05/06 04:55:21;;;;;;;2.40;2.30;;;9.80;99.90;;;;;;4952335;28;20209;-71
2023/05/06 04:57:48;;;;;;;2.03;1.92;;;9.80;99.90;;;;;;4960181;28;20590;-72
2023/05/06 05:00:16;;;;;;;4.90;3.83;;;9.80;99.90;;;;;;4964902;28;20215;-72
2023/05/06 05:02:43;;;;;;;5.40;4.40;;;9.90;99.90;;;;;;4953464;29;20236;-73
2023/05/06 05:05:11;;;;;;;2.78;2.60;;;9.90;99.90;;;;;;4954588;28;20217;-74
2023/05/06 05:07:38;;;;;;;4.10;3.72;;;9.90;99.90;;;;;;4964755;28;20552;-74
2023/05/06 05:10:08;;;;;;;2.83;2.72;;;9.90;99.90;;;;;;4971777;28;20215;-72
2023/05/06 05:12:35;;;;;;;6.63;3.60;;;10.00;99.90;;;;;;4961443;28;20209;-73
2023/05/06 05:15:02;;;;;;;4.57;4.22;;;10.00;99.90;;;;;;4969858;28;20341;-73
2023/05/06 05:17:28;;;;;;;6.82;3.20;;;10.00;99.90;;;;;;4961741;28;20204;-73
2023/05/06 05:19:55;;;;;;;11.40;4.28;;;10.00;99.90;;;;;;4952823;28;20563;-73
2023/05/06 05:22:23;;;;;;;3.80;3.40;;;10.10;99.90;;;;;;4956967;28;20232;-73
2023/05/06 05:24:50;;;;;;;4.43;3.65;;;10.10;99.90;;;;;;4955362;28;20228;-72
2023/05/06 05:27:17;;;;;;;3.15;2.95;;;10.10;99.90;;;;;;4960032;28;20232;-73
2023/05/06 05:29:43;;;;;;;5.03;4.43;;;10.10;99.90;;;;;;4968564;28;20215;-73
2023/05/06 05:32:10;;;;;;;4.13;2.72;;;10.10;99.90;;;;;;4963438;28;20646;-74
2023/05/06 05:34:37;;;;;;;4.38;3.33;;;10.10;99.90;;;;;;4963606;28;20323;-73
2023/05/06 05:37:04;;;;;;;3.80;3.50;;;10.10;99.90;;;;;;4971521;28;20219;-73
2023/05/06 05:39:32;;;;;;;3.40;3.10;;;10.20;99.90;;;;;;4952882;28;20610;-73
2023/05/06 05:41:58;;;;;;;3.60;3.42;;;10.20;99.90;;;;;;4951438;28;20239;-74
2023/05/06 05:44:25;;;;;;;6.82;3.88;;;10.20;99.90;;;;;;4959956;28;20229;-73
2023/05/06 05:46:52;;;;;;;4.90;4.60;;;10.20;99.90;;;;;;4969737;28;20252;-73
2023/05/06 05:49:19;;;;;;;4.03;3.83;;;10.20;99.90;;;;;;4957401;28;20208;-74
2023/05/06 05:51:45;;;;;;;3.42;3.17;;;10.30;99.90;;;;;;4955915;28;20532;-75
2023/05/06 05:54:13;;;;;;;7.60;4.85;;;10.30;99.90;;;;;;4967299;28;20220;-73
2023/05/06 05:56:41;;;;;;;3.75;3.45;;;10.40;99.90;;;;;;4969793;28;20218;-74
2023/05/06 05:59:08;;;;;;;6.63;5.97;;;10.40;99.90;;;;;;4967746;28;20212;-74
2023/05/06 06:01:35;;;;;;;4.90;4.20;;;10.40;99.90;;;;;;4970971;28;20224;-73
2023/05/06 06:04:01;;;;;;;4.43;4.13;;;10.40;99.90;;;;;;4961848;28;20232;-74
2023/05/06 06:06:28;;;;;;;12.80;4.53;;;10.40;99.90;;;;;;4968596;28;20570;-73
2023/05/06 06:08:55;;;;;;;2.65;2.45;;;10.40;99.90;;;;;;4960195;28;20585;-73
2023/05/06 06:11:24;;;;;;;4.72;4.32;;;10.30;99.90;;;;;;4955325;28;20347;-74
2023/05/06 06:13:52;;;;;;;6.03;4.35;;;10.30;99.90;;;;;;4954998;28;20551;-74
2023/05/06 06:16:19;;;;;;;7.65;5.43;;;10.30;99.90;;;;;;4956386;28;20205;-73
2023/05/06 06:18:46;;;;;;;3.35;3.08;;;10.30;99.90;;;;;;4956147;28;20305;-74
2023/05/06 06:21:12;;;;;;;2.65;2.55;;;10.30;99.90;;;;;;4963470;28;20235;-74
2023/05/06 06:23:39;;;;;;;5.57;3.72;;;10.30;99.90;;;;;;4963947;28;20319;-74
2023/05/06 06:26:06;;;;;;;8.40;4.18;;;10.30;99.90;;;;;;4959896;28;20263;-74
2023/05/06 06:28:33;;;;;;;3.63;3.40;;;10.30;99.90;;;;;;4962956;28;20288;-73
2023/05/06 06:31:01;;;;;;;5.10;3.38;;;10.30;99.90;;;;;;4967058;28;20220;-72
2023/05/06 06:33:28;;;;;;;3.85;3.63;;;10.30;99.90;;;;;;4974223;28;20248;-73
2023/05/06 06:35:55;;;;;;;3.70;3.50;;;10.30;99.90;;;;;;4976093;28;20212;-73
2023/05/06 06:38:21;;;;;;;4.50;4.10;;;10.30;99.90;;;;;;4961045;28;20224;-73
2023/05/06 06:40:48;;;;;;;4.00;3.67;;;10.30;99.90;;;;;;4961550;28;20201;-74
2023/05/06 06:43:15;;;;;;;2.72;2.63;;;10.30;99.90;;;;;;4970353;28;21028;-74
2023/05/06 06:45:41;;;;;;;6.28;4.25;;;10.30;99.90;;;;;;4955299;28;20214;-73
2023/05/06 06:48:10;;;;;;;4.88;4.32;;;10.30;99.90;;;;;;4955631;28;20283;-74
2023/05/06 06:50:36;;;;;;;4.50;4.05;;;10.30;99.90;;;;;;4953727;28;20563;-74
2023/05/06 06:53:03;;;;;;;1.83;1.73;;;10.30;99.90;;;;;;4964550;28;20304;-74
2023/05/06 06:55:30;;;;;;;3.00;2.90;;;10.30;99.90;;;;;;4972283;28;20678;-74
2023/05/06 06:57:56;;;;;;;3.88;3.67;;;10.20;99.90;;;;;;4955838;29;20213;-74
2023/05/06 07:00:24;;;;;;;4.47;3.35;;;10.20;99.90;;;;;;4953163;28;20213;-74
2023/05/06 07:02:50;;;;;;;5.20;3.50;;;10.30;99.90;;;;;;4962339;28;20238;-74
2023/05/06 07:05:18;;;;;;;6.38;3.58;;;10.30;99.90;;;;;;4955570;28;20217;-75
2023/05/06 07:07:45;;;;;;;3.30;2.80;;;10.30;99.90;;;;;;4955130;29;20217;-74
2023/05/06 07:10:12;;;;;;;3.75;3.50;;;10.30;99.90;;;;;;4954496;28;20217;-74
2023/05/06 07:12:39;;;;;;;5.03;4.38;;;10.30;99.90;;;;;;4955127;29;20292;-74
2023/05/06 07:15:07;;;;;;;3.80;3.47;;;10.30;99.90;;;;;;4952076;28;20223;-74
2023/05/06 07:17:34;;;;;;;4.60;4.30;;;10.30;99.90;;;;;;4964551;28;20276;-74
2023/05/06 07:20:00;;;;;;;2.92;2.85;;;10.30;99.90;;;;;;4955575;28;20213;-74
2023/05/06 07:22:29;;;;;;;3.28;3.10;;;10.30;99.90;;;;;;4957997;28;20225;-74
2023/05/06 07:24:56;;;;;;;1.75;1.75;;;10.20;99.90;;;;;;4954406;28;20686;-74
2023/05/06 07:27:22;;;;;;;4.15;3.75;;;10.20;99.90;;;;;;4965806;28;20208;-74
2023/05/06 07:29:49;;;;;;;6.38;4.00;;;10.20;99.90;;;;;;4973980;28;20212;-73
2023/05/06 07:32:16;;;;;;;5.30;3.38;;;10.20;99.90;;;;;;4974315;28;20544;-75
2023/05/06 07:34:43;;;;;;;7.70;5.00;;;10.30;99.90;;;;;;4959064;28;20248;-74
2023/05/06 07:37:09;;;;;;;7.55;4.38;;;10.30;99.90;;;;;;4957764;28;20212;-74
2023/05/06 07:39:37;;;;;;;6.40;3.88;;;10.30;99.90;;;;;;4958604;28;20221;-75
2023/05/06 07:42:06;;;;;;;3.90;3.60;;;10.30;99.90;;;;;;4952635;29;20221;-75
2023/05/06 07:44:33;;;;;;;4.10;3.75;;;10.40;99.90;;;;;;4942124;28;20238;-75
2023/05/06 07:46:59;;;;;;;6.38;3.40;;;10.40;99.90;;;;;;4950858;29;20297;-74
2023/05/06 07:49:27;;;;;;;3.95;3.75;;;10.40;99.90;;;;;;4951176;28;20336;-75
2023/05/06 07:51:54;;;;;;;3.97;3.33;;;10.40;99.90;;;;;;4951928;28;20202;-74
2023/05/06 07:54:23;;;;;;;3.65;3.20;;;10.40;99.90;;;;;;4963393;28;20428;-74
2023/05/06 07:56:52;;;;;;;5.05;4.65;;;10.50;99.90;;;;;;4954794;29;20209;-75
2023/05/06 07:59:18;;;;;;;4.60;3.63;;;10.50;99.90;;;;;;4954598;28;20237;-74
2023/05/06 08:01:45;;;;;;;5.15;4.65;;;10.50;99.90;;;;;;4961709;28;20232;-74
2023/05/06 08:04:12;;;;;;;4.38;3.33;;;10.50;99.90;;;;;;4953562;28;20252;-74
2023/05/06 08:06:38;;;;;;;5.15;4.28;;;10.60;99.90;;;;;;4953692;28;20643;-75
2023/05/06 08:09:05;;;;;;;5.82;5.15;;;10.60;99.90;;;;;;4959785;28;20209;-73
2023/05/06 08:11:32;;;;;;;3.05;2.80;;;10.70;99.90;;;;;;4946325;28;20217;-73
2023/05/06 08:14:00;;;;;;;3.47;3.28;;;10.70;99.90;;;;;;4946808;28;20228;-74
2023/05/06 08:16:27;;;;;;;5.57;5.18;;;10.70;99.90;;;;;;4954102;28;20212;-74
2023/05/06 08:18:53;;;;;;;4.53;3.88;;;10.70;99.90;;;;;;4950294;28;20229;-73
2023/05/06 08:21:20;;;;;;;4.90;4.40;;;10.70;99.90;;;;;;4952044;28;20561;-73
2023/05/06 08:23:47;;;;;;;4.05;3.85;;;10.70;99.90;;;;;;4951444;28;20241;-73
2023/05/06 08:26:13;;;;;;;6.00;5.22;;;10.70;99.90;;;;;;4950888;28;20208;-73
2023/05/06 08:28:40;;;;;;;4.05;3.75;;;10.80;99.90;;;;;;4950822;28;20300;-72
2023/05/06 08:31:08;;;;;;;3.60;3.30;;;10.80;99.90;;;;;;4951946;28;20239;-73
2023/05/06 08:33:35;;;;;;;6.00;4.47;;;10.80;99.90;;;;;;4961497;28;20247;-73
2023/05/06 08:36:02;;;;;;;4.70;4.22;;;10.80;99.90;;;;;;4954459;28;20220;-73
2023/05/06 08:38:28;;;;;;;5.15;4.55;;;10.80;99.90;;;;;;4963117;28;20209;-72
2023/05/06 08:41:00;;;;;;;3.97;3.78;;;10.80;99.90;;;;;;4952910;28;20209;-73
2023/05/06 08:43:28;;;;;;;3.55;3.25;;;10.80;99.90;;;;;;4955858;28;20371;-73
2023/05/06 08:45:55;;;;;;;5.38;4.97;;;10.80;99.90;;;;;;4946164;28;20721;-74
2023/05/06 08:48:23;;;;;;;7.32;4.65;;;10.90;99.90;;;;;;4948565;28;20213;-74
2023/05/06 08:50:51;;;;;;;5.72;4.90;;;11.00;99.90;;;;;;4963772;28;20219;-73
2023/05/06 08:53:18;;;;;;;3.50;2.90;;;11.10;99.90;;;;;;4955159;28;20660;-73
2023/05/06 08:55:46;;;;;;;4.88;4.05;;;11.10;99.90;;;;;;4962058;28;20213;-73
2023/05/06 08:58:16;;;;;;;3.10;2.85;;;11.20;99.90;;;;;;4952420;29;20240;-73
2023/05/06 09:00:43;;;;;;;2.80;2.70;;;11.20;99.90;;;;;;4952540;28;20217;-73
2023/05/06 09:03:10;;;;;;;4.90;4.50;;;11.20;99.90;;;;;;4953426;28;20232;-73
2023/05/06 09:05:39;;;;;;;9.30;5.20;;;11.20;99.90;;;;;;4952482;28;20205;-74
2023/05/06 09:08:05;;;;;;;2.92;2.78;;;11.10;99.90;;;;;;4953275;28;20209;-74
2023/05/06 09:10:33;;;;;;;4.28;3.75;;;11.10;99.90;;;;;;4952562;28;20212;-74
2023/05/06 09:12:59;;;;;;;4.63;4.20;;;11.20;99.90;;;;;;4953290;28;20205;-74
2023/05/06 09:15:26;;;;;;;3.70;3.50;;;11.20;99.90;;;;;;4953398;28;20209;-74
2023/05/06 09:17:55;;;;;;;5.05;3.00;;;11.20;99.90;;;;;;4954499;28;20631;-74
2023/05/06 09:20:21;;;;;;;6.30;3.78;;;11.20;99.90;;;;;;4952836;28;20635;-74
2023/05/06 09:22:50;;;;;;;3.30;3.10;;;11.30;99.90;;;;;;4952531;28;20229;-75
2023/05/06 09:25:17;;;;;;;7.93;3.67;;;11.40;99.90;;;;;;4952051;28;20213;-73
2023/05/06 09:27:44;;;;;;;9.00;3.65;;;11.40;99.90;;;;;;4952605;28;20209;-74
2023/05/06 09:30:12;;;;;;;8.65;3.65;;;11.50;99.90;;;;;;4952650;28;20209;-75
2023/05/06 09:32:39;;;;;;;4.00;3.65;;;11.50;99.90;;;;;;4953095;28;20675;-75
2023/05/06 09:35:07;;;;;;;4.80;4.30;;;11.60;99.90;;;;;;4952567;28;20213;-74
2023/05/06 09:37:34;;;;;;;4.57;4.22;;;11.60;99.90;;;;;;4953230;28;20465;-74
2023/05/06 09:40:02;;;;;;;5.30;4.10;;;11.60;99.90;;;;;;4946911;28;20205;-74
2023/05/06 09:42:30;;;;;;;3.83;3.53;;;11.60;99.90;;;;;;4952749;28;20480;-74
2023/05/06 09:44:58;;;;;;;7.77;4.57;;;11.60;99.90;;;;;;4952178;28;20252;-74
2023/05/06 09:47:27;;;;;;;7.75;5.10;;;11.60;99.90;;;;;;4952717;28;20476;-73
2023/05/06 09:49:58;;;;;;;3.97;3.65;;;11.60;99.90;;;;;;4952500;28;20224;-74
2023/05/06 09:52:26;;;;;;;3.97;3.30;;;11.60;99.90;;;;;;4952653;28;20264;-73
2023/05/06 09:54:53;;;;;;;3.88;3.53;;;11.60;99.90;;;;;;4952066;28;20252;-74
2023/05/06 09:57:22;;;;;;;5.18;3.97;;;11.50;99.90;;;;;;4951942;28;20205;-74
2023/05/06 09:59:50;;;;;;;6.15;4.60;;;11.50;99.90;;;;;;4952400;28;20279;-74
2023/05/06 10:02:18;;;;;;;2.95;2.75;;;11.50;99.90;;;;;;4952446;28;20298;-75
2023/05/06 10:04:48;;;;;;;6.18;4.82;;;11.50;99.90;;;;;;4952139;28;20717;-73
2023/05/06 10:07:16;;;;;;;5.15;4.70;;;11.50;99.90;;;;;;4952865;28;20212;-74
2023/05/06 10:09:43;;;;;;;6.13;5.32;;;11.50;99.90;;;;;;4952348;28;20224;-74
2023/05/06 10:12:10;;;;;;;6.77;4.57;;;11.40;99.90;;;;;;4952378;28;20220;-74
2023/05/06 10:14:38;;;;;;;7.17;4.90;;;11.40;99.90;;;;;;4951811;28;20507;-73
2023/05/06 10:17:08;;;;;;;4.88;4.40;;;11.50;99.90;;;;;;4952966;28;20471;-74
2023/05/06 10:19:36;;;;;;;11.88;4.60;;;11.40;99.90;;;;;;4953615;28;20209;-74
2023/05/06 10:22:09;;;;;;;5.18;4.75;;;11.40;99.90;;;;;;4952351;28;20577;-74
2023/05/06 10:24:45;;;;;;;5.70;4.47;;;11.30;99.90;;;;;;4951630;28;20253;-73
2023/05/06 10:27:13;;;;;;;9.48;5.03;;;11.30;99.90;;;;;;4951953;28;20751;-74
2023/05/06 10:29:43;;;;;;;7.38;4.80;;;11.40;99.90;;;;;;4951757;28;20559;-74
2023/05/06 10:32:12;;;;;;;7.18;5.25;;;11.40;99.90;;;;;;4952067;28;20213;-74
2023/05/06 10:34:52;;;;;;;4.72;3.35;;;11.50;99.90;;;;;;4954096;28;20332;-73
2023/05/06 10:37:22;;;;;;;5.88;4.97;;;11.50;99.90;;;;;;4956290;28;20212;-74
2023/05/06 10:39:49;;;;;;;6.13;5.60;;;11.60;99.90;;;;;;4950406;28;20209;-73
2023/05/06 10:42:17;;;;;;;20.75;3.92;;;11.50;99.90;;;;;;4954960;28;20208;-74
2023/05/06 10:44:58;;;;;;;6.50;4.63;;;11.60;99.90;;;;;;4954421;28;20233;-73
2023/05/06 10:47:25;;;;;;;6.40;4.95;;;11.70;99.90;;;;;;4956202;28;20468;-73
2023/05/06 10:50:20;;;;;;;14.50;5.38;;;11.70;99.90;;;;;;4957356;28;20304;-74
2023/05/06 10:52:49;;;;;;;3.85;3.35;;;11.60;99.90;;;;;;4956075;28;20205;-74
2023/05/06 10:55:27;;;;;;;3.55;3.25;;;11.50;99.90;;;;;;4954551;28;20474;-74
2023/05/06 10:58:03;;;;;;;4.25;3.67;;;11.60;99.90;;;;;;4955670;28;20209;-74
2023/05/06 11:00:34;;;;;;;4.22;3.88;;;11.50;99.90;;;;;;4955265;28;20209;-74
2023/05/06 11:03:03;;;;;;;7.07;5.32;;;11.50;99.90;;;;;;4955704;28;20325;-73
2023/05/06 11:05:29;;;;;;;4.10;3.30;;;11.40;99.90;;;;;;4954960;28;20209;-75
2023/05/06 11:08:10;;;;;;;8.85;5.22;;;11.40;99.90;;;;;;4955561;28;20229;-73
2023/05/06 11:10:37;;;;;;;4.35;3.83;;;11.40;99.90;;;;;;4954791;28;20257;-73
2023/05/06 11:13:24;;;;;;;5.20;4.70;;;11.30;99.90;;;;;;4955214;28;20225;-73
2023/05/06 11:15:53;;;;;;;3.80;3.35;;;11.30;99.90;;;;;;4955254;28;20315;-73
2023/05/06 11:18:42;;;;;;;5.20;4.30;;;11.40;99.90;;;;;;4954976;28;20555;-73
2023/05/06 11:21:37;;;;;;;4.28;3.97;;;11.50;99.90;;;;;;4954948;28;20809;-73
2023/05/06 11:24:09;;;;;;;32.38;6.22;;;11.60;99.90;;;;;;4954199;28;20244;-72
2023/05/06 11:26:36;;;;;;;7.45;4.97;;;11.60;99.90;;;;;;4954479;28;20212;-73
2023/05/06 11:29:03;;;;;;;6.20;5.53;;;11.60;99.90;;;;;;4954460;28;20247;-73
2023/05/06 11:31:39;;;;;;;5.72;5.10;;;11.60;99.90;;;;;;4954801;28;20683;-73
2023/05/06 11:34:08;;;;;;;6.43;4.67;;;11.60;99.90;;;;;;4953962;28;20682;-72
2023/05/06 11:36:35;;;;;;;4.20;3.80;;;11.60;99.90;;;;;;4954975;28;20472;-73
2023/05/06 11:39:06;;;;;;;5.18;4.47;;;11.50;99.90;;;;;;4954375;28;20272;-73
2023/05/06 11:41:33;;;;;;;3.65;3.35;;;11.50;99.90;;;;;;4949116;29;20557;-74
2023/05/06 11:44:00;;;;;;;9.63;5.55;;;11.50;99.90;;;;;;4953061;28;20578;-72
2023/05/06 11:46:32;;;;;;;6.22;4.78;;;11.50;99.90;;;;;;4953660;28;20233;-73
2023/05/06 11:48:58;;;;;;;7.53;4.05;;;11.50;99.90;;;;;;4954217;28;20213;-75
2023/05/06 11:51:26;;;;;;;6.15;5.63;;;11.60;99.90;;;;;;4954435;28;20553;-75
2023/05/06 11:54:03;;;;;;;5.72;5.13;;;11.60;99.90;;;;;;4954101;28;20229;-75
2023/05/06 11:56:30;;;;;;;4.72;4.35;;;11.60;99.90;;;;;;4953697;28;20268;-74
2023/05/06 11:58:57;;;;;;;7.03;4.82;;;11.50;99.90;;;;;;4954017;28;20217;-74
2023/05/06 12:01:23;;;;;;;5.90;4.53;;;11.50;99.90;;;;;;4954335;28;20217;-75
2023/05/06 12:03:55;;;;;;;5.05;4.63;;;11.50;99.90;;;;;;4953617;28;20332;-73
2023/05/06 12:06:33;;;;;;;6.07;4.13;;;11.60;99.90;;;;;;4954223;28;20627;-74
2023/05/06 12:09:00;;;;;;;5.65;4.45;;;11.60;99.90;;;;;;4954221;28;20219;-75
2023/05/06 12:11:27;;;;;;;7.55;4.32;;;11.60;99.90;;;;;;4953949;28;20639;-75
2023/05/06 12:13:54;;;;;;;4.03;3.58;;;11.50;99.90;;;;;;4953167;28;20225;-75
2023/05/06 12:16:21;;;;;;;4.75;4.45;;;11.50;99.90;;;;;;4954152;28;20213;-74
2023/05/06 12:18:48;;;;;;;12.00;5.38;;;11.40;99.90;;;;;;4954031;28;20286;-75
2023/05/06 12:21:22;;;;;;;18.70;4.93;;;11.40;99.90;;;;;;4954128;28;20221;-74
2023/05/06 12:23:52;;;;;;;7.47;6.60;;;11.40;99.90;;;;;;4953231;28;20263;-75
2023/05/06 12:26:20;;;;;;;9.32;3.92;;;11.50;99.90;;;;;;4954035;28;20209;-72
2023/05/06 12:28:46;;;;;;;10.10;5.10;;;11.50;99.90;;;;;;4953585;28;20305;-73
2023/05/06 12:31:20;;;;;;;5.38;4.88;;;11.50;99.90;;;;;;4953980;28;20213;-73
2023/05/06 12:33:49;;;;;;;6.22;5.60;;;11.60;99.90;;;;;;4953537;28;20233;-74
2023/05/06 12:36:17;;;;;;;6.10;4.68;;;11.50;99.90;;;;;;4954471;28;20295;-74
2023/05/06 12:38:54;;;;;;;4.75;4.35;;;11.50;99.90;;;;;;4954447;28;20282;-73
2023/05/06 12:41:21;;;;;;;4.07;3.70;;;11.50;99.90;;;;;;4953924;28;20264;-74
2023/05/06 12:43:49;;;;;;;3.53;3.28;;;11.60;99.90;;;;;;4953848;28;20238;-73
2023/05/06 12:46:16;;;;;;;5.85;5.28;;;11.60;99.90;;;;;;4955551;28;20305;-73
2023/05/06 12:48:56;;;;;;;4.47;4.07;;;11.70;99.90;;;;;;4954354;28;20277;-73
2023/05/06 12:51:25;;;;;;;6.57;4.43;;;11.60;99.90;;;;;;4954172;28;20472;-74
2023/05/06 12:53:52;;;;;;;8.67;5.07;;;11.70;99.90;;;;;;4952914;28;20610;-73
2023/05/06 12:56:20;;;;;;;5.70;4.35;;;11.60;99.90;;;;;;4953071;28;20503;-75